createdAt,value
2022-11-10T00:02:05.568Z,72.70
2022-11-10T00:04:51.180Z,70.60
2022-11-10T00:07:37.056Z,71.47
2022-11-10T00:10:22.748Z,77.78
2022-11-10T00:13:08.775Z,82.00
2022-11-10T00:16:13.202Z,81.35
2022-11-10T00:18:58.852Z,82.65
2022-11-10T00:21:44.338Z,81.03
2022-11-10T00:24:29.914Z,79.35
2022-11-10T00:27:15.444Z,78.38
2022-11-10T00:30:00.873Z,71.90
2022-11-10T00:32:48.300Z,76.55
2022-11-10T00:35:33.594Z,81.82
2022-11-10T00:38:19.188Z,79.28
2022-11-10T00:41:05.064Z,78.30
2022-11-10T00:43:50.499Z,78.70
2022-11-10T00:46:36.008Z,79.93
2022-11-10T00:49:21.579Z,79.50
2022-11-10T00:52:07.496Z,79.85
2022-11-10T00:54:52.897Z,79.97
2022-11-10T00:57:38.487Z,78.80
2022-11-10T01:00:24.200Z,81.20
2022-11-10T01:03:16.949Z,84.57
2022-11-10T01:06:13.431Z,84.85
2022-11-10T01:08:59.085Z,89.40
2022-11-10T01:11:44.493Z,94.00
2022-11-10T01:14:30.112Z,98.90
2022-11-10T01:17:15.749Z,98.57
2022-11-10T01:20:01.199Z,94.55
2022-11-10T01:22:46.929Z,88.88
2022-11-10T01:25:32.085Z,89.53
2022-11-10T01:28:17.743Z,88.45
2022-11-10T01:31:06.389Z,88.93
2022-11-10T01:33:51.840Z,89.80
2022-11-10T01:36:37.437Z,89.45
2022-11-10T01:39:23.039Z,92.00
2022-11-10T01:42:08.750Z,96.18
2022-11-10T01:45:25.194Z,87.05
2022-11-10T01:48:17.343Z,78.75
2022-11-10T01:51:11.985Z,68.03
2022-11-10T01:54:02.067Z,60.35
2022-11-10T01:56:51.467Z,59.50
2022-11-10T01:59:42.022Z,57.90
2022-11-10T02:02:56.405Z,61.17
2022-11-10T02:05:44.234Z,63.30
2022-11-10T02:08:30.227Z,62.85
2022-11-10T02:11:16.821Z,64.20
2022-11-10T02:14:02.419Z,54.53
2022-11-10T02:16:47.752Z,54.20
2022-11-10T02:19:41.580Z,51.10
2022-11-10T02:22:27.206Z,54.20
2022-11-10T02:25:19.518Z,55.63
2022-11-10T02:28:04.975Z,54.30
2022-11-10T02:30:51.115Z,49.47
2022-11-10T02:33:37.219Z,51.10
2022-11-10T02:36:22.566Z,48.70
2022-11-10T02:39:08.512Z,47.83
2022-11-10T02:41:54.149Z,49.10
2022-11-10T02:44:40.512Z,50.70
2022-11-10T02:47:25.782Z,49.22
2022-11-10T02:50:11.424Z,52.03
2022-11-10T02:52:56.978Z,47.22
2022-11-10T02:55:42.608Z,49.38
2022-11-10T02:58:27.962Z,47.22
2022-11-10T03:01:13.594Z,46.72
2022-11-10T03:03:59.054Z,49.25
2022-11-10T03:06:44.654Z,49.35
2022-11-10T03:09:30.147Z,49.42
2022-11-10T03:12:15.622Z,48.80
2022-11-10T03:15:01.255Z,45.08
2022-11-10T03:17:46.731Z,47.17
2022-11-10T03:20:32.136Z,51.20
2022-11-10T03:23:19.042Z,48.20
2022-11-10T03:26:06.021Z,53.42
2022-11-10T03:28:51.572Z,52.83
2022-11-10T03:31:36.949Z,47.03
2022-11-10T03:34:22.539Z,48.70
2022-11-10T03:37:09.445Z,53.60
2022-11-10T03:39:54.781Z,51.67
2022-11-10T03:42:44.705Z,51.78
2022-11-10T03:45:29.943Z,51.47
2022-11-10T03:48:15.423Z,53.95
2022-11-10T03:51:01.019Z,54.30
2022-11-10T03:53:46.676Z,53.45
2022-11-10T03:56:32.167Z,55.28
2022-11-10T03:59:17.778Z,60.45
2022-11-10T04:02:03.555Z,60.92
2022-11-10T04:05:07.838Z,59.42
2022-11-10T04:08:16.654Z,59.65
2022-11-10T04:11:03.370Z,60.35
2022-11-10T04:14:07.014Z,56.47
2022-11-10T04:16:52.636Z,56.80
2022-11-10T04:19:38.007Z,55.28
2022-11-10T04:22:41.936Z,49.45
2022-11-10T04:25:27.420Z,45.50
2022-11-10T04:28:12.878Z,48.80
2022-11-10T04:30:58.483Z,45.55
2022-11-10T04:33:45.570Z,44.72
2022-11-10T04:36:34.201Z,44.33
2022-11-10T04:39:19.769Z,46.67
2022-11-10T04:42:05.583Z,45.63
2022-11-10T04:44:51.117Z,44.88
2022-11-10T04:47:36.520Z,44.03
2022-11-10T04:50:22.226Z,48.42
2022-11-10T04:53:07.621Z,44.80
2022-11-10T04:55:54.295Z,43.40
2022-11-10T04:58:39.768Z,52.05
2022-11-10T05:01:27.521Z,52.95
2022-11-10T05:04:13.493Z,54.55
2022-11-10T05:06:59.800Z,55.25
2022-11-10T05:09:45.507Z,59.03
2022-11-10T05:12:31.826Z,59.08
2022-11-10T05:15:17.698Z,57.63
2022-11-10T05:18:03.089Z,57.75
2022-11-10T05:20:49.505Z,63.88
2022-11-10T05:23:41.882Z,61.10
2022-11-10T05:26:27.394Z,61.03
2022-11-10T05:29:12.604Z,66.10
2022-11-10T05:31:58.098Z,55.88
2022-11-10T05:34:43.418Z,65.05
2022-11-10T05:37:28.940Z,56.92
2022-11-10T05:40:14.626Z,58.40
2022-11-10T05:43:00.029Z,55.80
2022-11-10T05:45:45.657Z,50.28
2022-11-10T05:48:30.887Z,49.47
2022-11-10T05:51:16.479Z,49.30
2022-11-10T05:54:01.842Z,44.42
2022-11-10T05:56:47.353Z,41.83
2022-11-10T05:59:33.096Z,43.90
2022-11-10T06:02:18.599Z,43.22
2022-11-10T06:05:04.595Z,40.70
2022-11-10T06:07:49.805Z,41.30
2022-11-10T06:10:36.913Z,41.00
2022-11-10T06:13:22.846Z,39.65
2022-11-10T06:16:08.397Z,38.83
2022-11-10T06:18:54.013Z,38.13
2022-11-10T06:21:39.643Z,38.10
2022-11-10T06:24:24.856Z,37.40
2022-11-10T06:27:10.533Z,38.42
2022-11-10T06:29:56.088Z,36.65
2022-11-10T06:32:44.789Z,40.80
2022-11-10T06:35:30.804Z,41.10
2022-11-10T06:38:16.299Z,38.53
2022-11-10T06:41:01.796Z,38.67
2022-11-10T06:43:47.411Z,42.80
2022-11-10T06:46:34.977Z,41.45
2022-11-10T06:49:23.691Z,43.70
2022-11-10T06:52:09.446Z,44.45
2022-11-10T06:54:54.912Z,42.80
2022-11-10T06:57:40.633Z,46.97
2022-11-10T07:00:27.808Z,41.80
2022-11-10T07:03:15.224Z,44.03
2022-11-10T07:06:00.515Z,41.58
2022-11-10T07:08:46.191Z,45.50
2022-11-10T07:11:31.373Z,44.08
2022-11-10T07:14:17.028Z,47.47
2022-11-10T07:17:02.706Z,45.60
2022-11-10T07:19:48.295Z,46.80
2022-11-10T07:22:33.831Z,49.30
2022-11-10T07:25:19.438Z,47.22
2022-11-10T07:28:07.658Z,46.72
2022-11-10T07:30:52.891Z,49.50
2022-11-10T07:33:38.361Z,52.97
2022-11-10T07:36:23.888Z,62.40
2022-11-10T07:39:13.317Z,59.65
2022-11-10T07:41:58.873Z,52.38
2022-11-10T07:44:44.442Z,48.17
2022-11-10T07:47:29.950Z,46.67
2022-11-10T07:50:15.852Z,50.70
2022-11-10T07:53:10.324Z,49.58
2022-11-10T07:55:58.467Z,58.58
2022-11-10T07:58:43.742Z,52.20
2022-11-10T08:01:29.621Z,50.70
2022-11-10T08:04:15.102Z,46.53
2022-11-10T08:07:00.429Z,47.70
2022-11-10T08:09:45.981Z,45.45
2022-11-10T08:12:33.675Z,48.88
2022-11-10T08:15:19.307Z,47.72
2022-11-10T08:18:18.037Z,44.97
2022-11-10T08:21:05.132Z,41.92
2022-11-10T08:23:50.677Z,41.65
2022-11-10T08:26:36.062Z,38.53
2022-11-10T08:29:21.614Z,38.13
2022-11-10T08:32:07.417Z,37.72
2022-11-10T08:34:52.998Z,37.72
2022-11-10T08:37:38.659Z,39.78
2022-11-10T08:40:27.820Z,41.95
2022-11-10T08:43:14.379Z,38.60
2022-11-10T08:46:01.630Z,39.70
2022-11-10T08:48:47.411Z,40.05
2022-11-10T08:51:38.727Z,44.13
2022-11-10T08:54:24.674Z,41.55
2022-11-10T08:57:10.331Z,44.78
2022-11-10T08:59:55.880Z,42.75
2022-11-10T09:02:41.709Z,40.20
2022-11-10T09:05:27.094Z,46.90
2022-11-10T09:08:12.925Z,47.38
2022-11-10T09:11:01.555Z,43.63
2022-11-10T09:13:47.347Z,41.83
2022-11-10T09:16:32.571Z,42.30
2022-11-10T09:19:19.957Z,39.60
2022-11-10T09:22:07.412Z,44.78
2022-11-10T09:24:52.817Z,41.88
2022-11-10T09:27:39.048Z,44.97
2022-11-10T09:30:25.460Z,47.72
2022-11-10T09:33:11.397Z,47.85
2022-11-10T09:35:59.515Z,44.05
2022-11-10T09:38:45.466Z,40.67
2022-11-10T09:41:31.201Z,41.33
2022-11-10T09:44:19.531Z,43.88
2022-11-10T09:47:18.962Z,44.33
2022-11-10T09:50:26.947Z,42.58
2022-11-10T09:53:21.682Z,44.70
2022-11-10T09:56:12.119Z,39.90
2022-11-10T09:58:59.038Z,40.10
2022-11-10T10:02:01.096Z,36.53
2022-11-10T10:05:07.675Z,38.75
2022-11-10T10:08:00.593Z,37.75
2022-11-10T10:11:01.050Z,36.10
2022-11-10T10:14:11.104Z,34.75
2022-11-10T10:17:17.442Z,31.92
2022-11-10T10:20:20.202Z,32.60
2022-11-10T10:24:07.285Z,31.77
2022-11-10T10:26:45.268Z,30.93
2022-11-10T10:29:37.971Z,30.33
2022-11-10T10:32:23.498Z,31.08
2022-11-10T10:35:17.665Z,30.83
2022-11-10T10:38:05.562Z,29.33
2022-11-10T10:40:53.370Z,31.00
2022-11-10T10:43:44.392Z,31.30
2022-11-10T10:46:35.688Z,31.08
2022-11-10T10:49:31.031Z,34.30
2022-11-10T10:52:20.303Z,31.55
2022-11-10T10:55:07.774Z,31.23
2022-11-10T10:57:59.279Z,31.85
2022-11-10T11:00:47.568Z,30.40
2022-11-10T11:03:50.373Z,32.33
2022-11-10T11:06:36.547Z,31.52
2022-11-10T11:09:28.037Z,30.02
2022-11-10T11:12:22.336Z,31.52
2022-11-10T11:15:21.710Z,29.90
2022-11-10T11:18:19.342Z,29.40
2022-11-10T11:21:19.574Z,31.23
2022-11-10T11:24:39.753Z,29.48
2022-11-10T11:27:31.299Z,28.27
2022-11-10T11:30:22.515Z,31.70
2022-11-10T11:33:30.041Z,31.92
2022-11-10T11:36:39.749Z,31.10
2022-11-10T11:39:40.339Z,30.98
2022-11-10T11:42:31.570Z,28.52
2022-11-10T11:45:35.444Z,30.27
2022-11-10T11:48:42.223Z,26.08
2022-11-10T11:51:38.898Z,23.65
2022-11-10T11:54:24.070Z,25.80
2022-11-10T11:57:29.377Z,28.27
2022-11-10T12:00:19.076Z,26.95
2022-11-10T12:03:42.832Z,26.77
2022-11-10T12:06:46.556Z,28.52
2022-11-10T12:09:51.029Z,30.38
2022-11-10T12:13:01.287Z,29.50
2022-11-10T12:15:59.579Z,27.67
2022-11-10T12:19:03.702Z,26.92
2022-11-10T12:21:59.215Z,26.60
2022-11-10T12:27:40.031Z,26.98
2022-11-10T12:30:25.830Z,27.70
2022-11-10T12:33:30.918Z,27.83
2022-11-10T12:36:20.051Z,28.58
2022-11-10T12:39:28.406Z,30.58
2022-11-10T12:42:24.470Z,33.67
2022-11-10T12:45:24.196Z,31.35
2022-11-10T12:48:13.181Z,31.58
2022-11-10T12:51:15.140Z,31.83
2022-11-10T12:54:00.917Z,30.45
2022-11-10T12:57:05.863Z,30.27
2022-11-10T12:59:59.981Z,32.25
2022-11-10T13:02:46.764Z,32.15
2022-11-10T13:05:42.048Z,32.78
2022-11-10T13:08:36.893Z,32.90
2022-11-10T13:11:34.214Z,32.30
2022-11-10T13:14:23.880Z,33.10
2022-11-10T13:17:29.728Z,34.13
2022-11-10T13:20:39.941Z,34.58
2022-11-10T13:23:56.166Z,36.00
2022-11-10T13:26:44.656Z,35.88
2022-11-10T13:29:34.822Z,37.67
2022-11-10T13:32:23.198Z,38.80
2022-11-10T13:35:30.479Z,36.85
2022-11-10T13:38:43.046Z,39.13
2022-11-10T13:41:32.063Z,39.17
2022-11-10T13:44:28.013Z,39.60
2022-11-10T14:48:17.804Z,44.97
2022-11-10T14:51:21.278Z,45.15
2022-11-10T14:54:12.675Z,44.70
2022-11-10T14:56:58.210Z,45.88
2022-11-10T14:59:43.981Z,45.95
2022-11-10T15:02:29.488Z,47.30
2022-11-10T15:05:16.451Z,48.25
2022-11-10T15:08:03.632Z,46.55
2022-11-10T15:10:53.163Z,50.17
2022-11-10T15:13:39.897Z,49.88
2022-11-10T15:16:38.563Z,54.80
2022-11-10T15:19:35.441Z,53.85
2022-11-10T15:22:21.183Z,51.08
2022-11-10T15:25:32.014Z,52.42
2022-11-10T15:28:33.644Z,52.20
2022-11-10T15:31:29.999Z,53.83
2022-11-10T15:34:48.960Z,49.33
2022-11-10T15:37:34.650Z,50.50
2022-11-10T15:40:31.351Z,51.63
2022-11-10T15:43:27.503Z,52.88
2022-11-10T15:46:18.496Z,52.63
2022-11-10T15:49:04.463Z,52.25
2022-11-10T15:51:59.801Z,53.65
2022-11-10T15:54:45.991Z,57.03
2022-11-10T15:57:31.392Z,59.38
2022-11-10T16:00:17.214Z,57.40
2022-11-10T16:03:02.504Z,57.00
2022-11-10T16:05:48.520Z,55.33
2022-11-10T16:08:35.085Z,51.65
2022-11-10T16:11:22.639Z,58.85
2022-11-10T16:14:14.956Z,55.25
2022-11-10T16:17:00.833Z,55.50
2022-11-10T16:19:46.786Z,51.13
2022-11-10T16:22:31.998Z,48.35
2022-11-10T16:25:23.758Z,48.60
2022-11-10T16:28:25.355Z,49.30
2022-11-10T16:31:12.014Z,50.13
2022-11-10T16:33:57.379Z,52.80
2022-11-10T16:36:46.043Z,50.75
2022-11-10T16:39:31.910Z,50.92
2022-11-10T16:42:17.130Z,48.53
2022-11-10T16:45:02.688Z,48.47
2022-11-10T16:47:51.877Z,48.35
2022-11-10T16:50:37.836Z,46.15
2022-11-10T16:53:27.050Z,47.40
2022-11-10T16:56:17.015Z,45.40
2022-11-10T16:59:03.402Z,46.33
2022-11-10T17:01:49.696Z,48.10
2022-11-10T17:04:35.431Z,49.30
2022-11-10T17:07:25.738Z,50.25
2022-11-10T17:10:16.364Z,49.65
2022-11-10T17:13:01.593Z,47.80
2022-11-10T17:15:47.474Z,44.85
2022-11-10T17:18:34.699Z,47.35
2022-11-10T17:21:22.005Z,43.53
2022-11-10T17:24:08.150Z,39.97
2022-11-10T17:26:53.690Z,43.40
2022-11-10T17:29:39.207Z,43.50
2022-11-10T17:32:49.964Z,40.90
2022-11-10T17:35:36.208Z,40.90
2022-11-10T17:38:28.000Z,40.67
2022-11-10T17:41:19.107Z,42.55
2022-11-10T17:44:04.854Z,38.45
2022-11-10T17:46:50.165Z,37.75
2022-11-10T17:49:35.404Z,38.10
2022-11-10T17:52:20.931Z,35.75
2022-11-10T17:55:06.603Z,36.42
2022-11-10T17:57:51.966Z,36.17
2022-11-10T18:00:37.647Z,36.00
2022-11-10T18:03:23.299Z,33.10
2022-11-10T18:06:12.906Z,36.13
2022-11-10T18:08:58.223Z,38.83
2022-11-10T18:11:44.682Z,34.88
2022-11-10T18:14:33.909Z,32.30
2022-11-10T18:17:19.226Z,34.72
2022-11-10T18:20:05.305Z,37.08
2022-11-10T18:22:50.534Z,33.85
2022-11-10T18:25:36.084Z,33.88
2022-11-10T18:28:21.685Z,31.80
2022-11-10T18:31:13.192Z,33.38
2022-11-10T18:33:58.791Z,28.33
2022-11-10T18:36:44.346Z,29.60
2022-11-10T18:39:30.902Z,27.25
2022-11-10T18:42:16.613Z,27.55
2022-11-10T18:45:02.280Z,28.42
2022-11-10T18:47:47.552Z,27.58
2022-11-10T18:50:33.268Z,26.80
2022-11-10T18:53:18.555Z,24.67
2022-11-10T18:56:04.856Z,24.33
2022-11-10T18:58:56.466Z,25.35
2022-11-10T19:01:42.620Z,24.30
2022-11-10T19:04:28.160Z,24.50
2022-11-10T19:07:13.861Z,23.52
2022-11-10T19:09:59.933Z,24.73
2022-11-10T19:12:45.197Z,23.38
2022-11-10T19:15:30.676Z,23.73
2022-11-10T19:18:16.460Z,22.10
2022-11-10T19:21:10.469Z,21.27
2022-11-10T19:23:59.199Z,19.45
2022-11-10T19:26:44.783Z,20.60
2022-11-10T19:29:30.095Z,18.00
2022-11-10T19:32:16.978Z,16.20
2022-11-10T19:35:05.434Z,16.30
2022-11-10T19:37:53.828Z,16.50
2022-11-10T19:40:39.883Z,15.07
2022-11-10T19:43:25.686Z,14.13
2022-11-10T19:46:20.919Z,14.98
2022-11-10T19:49:06.340Z,15.05
2022-11-10T19:51:52.671Z,15.02
2022-11-10T19:54:38.228Z,13.55
2022-11-10T19:57:23.528Z,14.40
2022-11-10T20:00:11.935Z,12.85
2022-11-10T20:02:57.193Z,12.80
2022-11-10T20:05:43.647Z,13.35
2022-11-10T20:08:30.173Z,12.73
2022-11-10T20:11:17.323Z,14.52
2022-11-10T20:14:03.822Z,13.57
2022-11-10T20:16:49.632Z,12.13
2022-11-10T20:19:40.865Z,11.98
2022-11-10T20:22:26.591Z,11.45
2022-11-10T20:25:12.399Z,12.05
2022-11-10T20:27:58.355Z,12.80
2022-11-10T20:30:44.561Z,11.10
2022-11-10T20:33:32.316Z,10.07
2022-11-10T20:36:27.244Z,9.80
2022-11-10T20:39:12.977Z,9.43
2022-11-10T20:41:58.353Z,10.38
2022-11-10T20:44:44.214Z,9.77
2022-11-10T20:47:30.160Z,9.13
2022-11-10T20:50:19.296Z,8.65
2022-11-10T20:53:08.931Z,8.50
2022-11-10T20:55:59.694Z,8.32
2022-11-10T20:58:45.235Z,8.15
2022-11-10T21:01:30.882Z,8.55
2022-11-10T21:04:16.889Z,8.40
2022-11-10T21:07:02.190Z,8.73
2022-11-10T21:09:47.633Z,9.55
2022-11-10T21:12:51.214Z,8.13
2022-11-10T21:15:40.123Z,7.65
2022-11-10T21:18:28.563Z,7.20
2022-11-10T21:21:23.198Z,5.82
2022-11-10T21:26:56.645Z,7.43
2022-11-10T21:29:42.395Z,6.03
2022-11-10T21:32:28.140Z,7.07
2022-11-10T21:35:13.760Z,6.45
2022-11-10T21:37:59.008Z,6.82
2022-11-10T21:40:44.587Z,5.95
2022-11-10T21:43:30.526Z,6.55
2022-11-10T21:46:16.182Z,5.93
2022-11-10T21:49:07.151Z,5.88
2022-11-10T21:51:53.312Z,5.68
2022-11-10T21:54:38.791Z,5.47
2022-11-10T21:57:24.456Z,6.22
2022-11-10T22:00:11.467Z,5.28
2022-11-10T22:03:03.787Z,5.35
2022-11-10T22:05:49.030Z,5.00
2022-11-10T22:08:36.153Z,4.85
2022-11-10T22:11:40.534Z,4.97
2022-11-10T22:14:44.385Z,4.55
2022-11-10T22:20:34.917Z,4.32
2022-11-10T22:23:40.139Z,4.20
2022-11-10T22:26:25.345Z,4.72
2022-11-10T22:29:10.666Z,4.82
2022-11-10T22:31:56.404Z,4.43
2022-11-10T22:34:41.458Z,4.72
2022-11-10T22:37:32.999Z,4.90
2022-11-10T22:40:36.691Z,4.90
2022-11-10T22:43:40.546Z,4.57
2022-11-10T22:46:25.969Z,4.50
2022-11-10T22:49:16.291Z,4.80
2022-11-10T22:52:01.684Z,4.78
2022-11-10T22:54:47.164Z,4.55
2022-11-10T22:57:32.833Z,4.60
2022-11-10T23:00:18.471Z,3.67
2022-11-10T23:03:04.023Z,3.97
2022-11-10T23:05:56.185Z,3.55
2022-11-10T23:08:43.516Z,3.97
2022-11-10T23:11:30.917Z,3.83
2022-11-10T23:14:16.041Z,3.10
2022-11-10T23:17:01.597Z,3.70
2022-11-10T23:19:46.912Z,4.03
2022-11-10T23:22:32.400Z,3.38
2022-11-10T23:25:18.036Z,4.47
2022-11-10T23:28:04.030Z,3.85
2022-11-10T23:30:49.667Z,4.53
2022-11-10T23:33:36.227Z,3.92
2022-11-10T23:36:24.274Z,3.35
2022-11-10T23:39:09.803Z,3.33
2022-11-10T23:41:55.287Z,3.67
2022-11-10T23:44:40.959Z,3.95
2022-11-10T23:47:26.529Z,3.42
2022-11-10T23:50:12.042Z,3.83
2022-11-10T23:52:57.307Z,2.80
2022-11-10T23:55:43.091Z,3.50
2022-11-10T23:58:29.729Z,3.45
